Time;durP1;ratioP1;P1;durP2;ratioP2;P2;SDS_P1;SDS_P2;PMS_P1;PMS_P2;Temp;Humidity;BMP_temperature;BMP_pressure;BME280_temperature;BME280_humidity;BME280_pressure;Samples;Min_cycle;Max_cycle;Signal;HPM_P1;HPM_P2
2023/01/16 00:01:30;;;;;;;4.20;0.70;;;;;;;2.81;86.16;99244.82;106651;1270;22666;-60
2023/01/16 00:04:01;;;;;;;3.80;0.80;;;;;;;2.81;86.37;99244.73;106768;1277;22667;-60
2023/01/16 00:06:33;;;;;;;4.40;0.70;;;;;;;2.82;86.12;99244.55;106711;1269;24190;-58
2023/01/16 00:09:05;;;;;;;3.70;0.50;;;;;;;2.80;85.95;99244.36;106697;1267;24237;-59
2023/01/16 00:11:36;;;;;;;2.40;0.40;;;;;;;2.79;85.92;99247.02;106670;1277;26700;-60
2023/01/16 00:14:07;;;;;;;3.00;0.40;;;;;;;2.78;85.76;99242.80;106773;1277;25366;-60
2023/01/16 00:16:38;;;;;;;4.90;0.50;;;;;;;2.77;85.73;99240.48;106646;1271;22528;-60
2023/01/16 00:19:09;;;;;;;2.40;0.50;;;;;;;2.77;85.66;99240.71;106649;1277;24183;-60
2023/01/16 00:21:40;;;;;;;5.30;0.60;;;;;;;2.76;85.59;99239.14;106685;1272;24267;-61
2023/01/16 00:24:11;;;;;;;2.90;0.50;;;;;;;2.77;85.61;99235.20;106761;1267;22529;-60
2023/01/16 00:26:42;;;;;;;2.50;0.40;;;;;;;2.76;85.55;99234.27;106638;1270;22552;-60
2023/01/16 00:29:13;;;;;;;2.90;0.50;;;;;;;2.76;85.59;99236.72;106634;1262;22741;-60
2023/01/16 00:31:44;;;;;;;2.60;0.60;;;;;;;2.76;85.63;99236.80;106850;1277;24184;-59
2023/01/16 00:34:15;;;;;;;3.60;0.60;;;;;;;2.76;85.63;99234.21;106668;1276;24863;-60
2023/01/16 00:36:46;;;;;;;2.60;0.40;;;;;;;2.75;85.52;99236.69;106679;1277;24250;-59
2023/01/16 00:39:17;;;;;;;2.90;0.40;;;;;;;2.75;85.61;99230.67;106637;1277;23929;-58
2023/01/16 00:41:47;;;;;;;3.30;0.50;;;;;;;2.76;85.51;99229.24;106660;1277;22545;-60
2023/01/16 00:44:19;;;;;;;3.10;0.60;;;;;;;2.76;85.49;99224.51;106586;1272;22651;-58
2023/01/16 00:46:50;;;;;;;3.90;0.40;;;;;;;2.76;85.33;99222.61;106613;1276;25591;-60
2023/01/16 00:49:21;;;;;;;4.30;0.50;;;;;;;2.77;85.34;99221.95;106594;1270;24247;-59
2023/01/16 00:51:52;;;;;;;3.10;0.40;;;;;;;2.77;85.31;99222.74;106612;1270;24329;-59
2023/01/16 00:54:23;;;;;;;4.10;0.40;;;;;;;2.77;85.32;99217.08;106566;1276;24362;-60
2023/01/16 00:56:54;;;;;;;3.30;0.50;;;;;;;2.77;85.30;99214.02;106656;1274;23158;-60
2023/01/16 00:59:25;;;;;;;3.00;0.40;;;;;;;2.77;85.40;99209.70;106604;1264;22561;-59
2023/01/16 01:01:56;;;;;;;4.10;0.50;;;;;;;2.76;85.33;99204.98;106557;1277;22526;-60
2023/01/16 01:04:28;;;;;;;3.70;0.40;;;;;;;2.76;85.20;99209.40;106611;1277;22528;-59
2023/01/16 01:06:59;;;;;;;2.80;0.40;;;;;;;2.77;85.18;99209.45;106664;1277;23140;-58
2023/01/16 01:09:30;;;;;;;4.10;0.30;;;;;;;2.78;85.34;99210.52;106657;1273;25252;-59
2023/01/16 01:12:02;;;;;;;4.60;0.30;;;;;;;2.78;85.06;99205.23;106646;1267;22541;-59
2023/01/16 01:14:32;;;;;;;4.00;0.40;;;;;;;2.79;84.98;99204.71;106662;1263;25433;-58
2023/01/16 01:17:03;;;;;;;3.50;0.40;;;;;;;2.81;85.23;99200.41;106696;1277;22529;-59
2023/01/16 01:19:35;;;;;;;1.80;0.40;;;;;;;2.82;85.10;99197.83;106701;1264;24755;-60
2023/01/16 01:22:06;;;;;;;3.10;0.50;;;;;;;2.83;85.03;99201.64;106753;1277;22658;-60
2023/01/16 01:24:37;;;;;;;4.50;0.60;;;;;;;2.85;84.90;99200.30;106647;1277;22911;-58
2023/01/16 01:27:08;;;;;;;3.00;0.40;;;;;;;2.87;85.00;99197.61;106595;1276;22537;-58
2023/01/16 01:29:39;;;;;;;3.60;0.60;;;;;;;2.89;85.04;99193.91;106596;1273;25340;-58
2023/01/16 01:32:11;;;;;;;5.00;0.60;;;;;;;2.91;84.90;99187.47;106733;1254;24308;-59
2023/01/16 01:34:42;;;;;;;2.50;0.30;;;;;;;2.92;84.84;99185.30;106750;1257;25330;-58
2023/01/16 01:37:13;;;;;;;3.70;0.60;;;;;;;2.93;84.92;99184.54;106640;1264;24237;-60
2023/01/16 01:39:44;;;;;;;2.50;0.50;;;;;;;2.95;84.83;99183.23;106668;1277;26402;-58
2023/01/16 01:45:12;;;;;;;4.90;0.50;;;;;;;2.95;84.64;99180.70;106585;1277;22464;-59
2023/01/16 01:47:48;;;;;;;5.70;0.60;;;;;;;2.94;84.61;99179.79;106603;1277;22535;-60
2023/01/16 01:50:30;;;;;;;3.00;0.50;;;;;;;2.93;84.67;99179.05;106580;1261;22518;-60
2023/01/16 01:53:04;;;;;;;3.30;0.40;;;;;;;2.91;84.54;99174.48;106604;1270;22623;-59
2023/01/16 01:55:35;;;;;;;2.70;0.50;;;;;;;2.91;84.65;99166.36;106752;1270;25434;-58
2023/01/16 01:58:07;;;;;;;4.00;0.50;;;;;;;2.90;84.45;99164.82;106654;1270;22592;-61
2023/01/16 02:00:38;;;;;;;3.90;0.50;;;;;;;2.88;84.55;99162.77;106758;1277;23912;-59
2023/01/16 02:03:14;;;;;;;3.20;0.50;;;;;;;2.85;84.62;99158.72;106651;1277;22553;-59
2023/01/16 02:05:49;;;;;;;4.50;0.60;;;;;;;2.84;84.57;99158.06;106693;1274;22535;-61
2023/01/16 02:08:23;;;;;;;2.70;0.40;;;;;;;2.81;84.55;99160.67;106766;1277;22529;-59
2023/01/16 02:10:57;;;;;;;4.70;0.90;;;;;;;2.79;84.54;99160.63;106737;1277;22550;-60
2023/01/16 02:13:28;;;;;;;4.50;0.50;;;;;;;2.77;84.86;99156.20;106715;1270;23951;-60
2023/01/16 02:22:08;;;;;;;3.90;0.90;;;;;;;2.68;84.59;99151.83;106633;1277;24241;-59
2023/01/16 02:25:01;;;;;;;6.70;0.60;;;;;;;2.68;84.67;99147.81;106636;1277;22650;-59
2023/01/16 02:28:16;;;;;;;5.20;0.50;;;;;;;2.68;84.60;99144.90;106540;1257;22651;-59
2023/01/16 02:31:07;;;;;;;2.20;0.40;;;;;;;2.69;84.62;99142.11;106704;1254;25497;-60
2023/01/16 02:33:52;;;;;;;2.70;0.30;;;;;;;2.70;84.61;99145.46;106778;1277;22534;-60
2023/01/16 02:36:37;;;;;;;2.80;0.30;;;;;;;2.69;84.71;99143.10;106762;1277;25986;-59
2023/01/16 02:39:26;;;;;;;4.20;0.80;;;;;;;2.68;84.58;99138.70;106789;1262;24190;-59
2023/01/16 02:42:05;;;;;;;2.70;0.50;;;;;;;2.65;84.57;99134.30;106644;1276;22545;-60
2023/01/16 02:44:44;;;;;;;2.80;0.50;;;;;;;2.63;84.53;99137.88;106718;1277;23407;-60
2023/01/16 02:47:23;;;;;;;6.00;0.60;;;;;;;2.59;84.56;99131.56;106738;1271;25429;-59
2023/01/16 02:50:02;;;;;;;4.10;0.40;;;;;;;2.56;84.51;99132.69;106691;1273;25256;-60
2023/01/16 02:52:41;;;;;;;4.80;0.40;;;;;;;2.51;84.31;99130.75;106624;1277;24300;-61
2023/01/16 02:55:20;;;;;;;2.90;0.40;;;;;;;2.45;84.31;99128.54;106650;1276;24140;-58
2023/01/16 02:57:56;;;;;;;3.40;0.50;;;;;;;2.41;84.54;99124.36;106714;1277;22527;-59
2023/01/16 03:00:29;;;;;;;5.30;0.90;;;;;;;2.39;84.57;99119.86;106604;1262;22535;-61
2023/01/16 03:03:00;;;;;;;2.90;0.50;;;;;;;2.36;84.51;99117.21;106713;1278;23156;-59
2023/01/16 03:05:39;;;;;;;3.20;0.40;;;;;;;2.34;84.64;99110.54;106755;1267;22644;-60
2023/01/16 03:08:30;;;;;;;3.40;0.50;;;;;;;2.32;84.62;99111.02;106712;1273;22539;-60
2023/01/16 03:11:25;;;;;;;3.80;0.60;;;;;;;2.30;84.73;99109.77;106781;1271;23027;-60
2023/01/16 03:14:13;;;;;;;5.50;0.60;;;;;;;2.27;84.85;99111.83;106828;1277;23030;-59
2023/01/16 03:16:53;;;;;;;4.30;0.50;;;;;;;2.28;85.09;99115.17;106834;1274;25488;-60
2023/01/16 03:19:37;;;;;;;2.60;0.50;;;;;;;2.29;85.10;99117.98;106778;1276;24254;-60
2023/01/16 03:22:17;;;;;;;4.60;0.70;;;;;;;2.27;84.99;99112.46;106776;1263;22541;-61
2023/01/16 03:25:09;;;;;;;2.80;0.60;;;;;;;2.25;84.90;99112.12;106697;1277;24163;-58
2023/01/16 03:27:55;;;;;;;2.80;0.50;;;;;;;2.22;84.78;99112.20;106630;1277;24077;-60
2023/01/16 03:30:32;;;;;;;6.50;0.60;;;;;;;2.17;84.95;99110.56;106614;1270;22572;-60
2023/01/16 03:33:07;;;;;;;4.60;0.70;;;;;;;2.15;84.99;99111.46;106666;1277;24202;-62
2023/01/16 03:35:44;;;;;;;1.70;0.40;;;;;;;2.15;84.99;99108.16;106751;1273;22629;-59
2023/01/16 03:38:19;;;;;;;3.80;0.50;;;;;;;2.15;85.02;99101.73;106712;1267;24231;-58
2023/01/16 03:40:51;;;;;;;1.90;0.30;;;;;;;2.12;84.94;99099.95;106755;1258;22542;-60
2023/01/16 03:43:26;;;;;;;3.80;0.50;;;;;;;2.10;84.99;99098.68;106821;1262;25634;-60
2023/01/16 03:46:01;;;;;;;6.00;0.60;;;;;;;2.08;85.10;99089.17;106487;1277;278120;-59
2023/01/16 03:48:38;;;;;;;7.10;0.70;;;;;;;2.07;85.09;99087.41;106699;1277;22537;-61
2023/01/16 03:51:13;;;;;;;3.60;0.80;;;;;;;2.05;85.14;99086.20;106688;1269;22605;-61
2023/01/16 03:53:46;;;;;;;5.30;0.80;;;;;;;2.06;85.33;99079.58;106598;1274;22533;-60
2023/01/16 03:56:21;;;;;;;5.30;0.40;;;;;;;2.07;85.43;99078.60;106668;1270;22659;-60
2023/01/16 03:58:54;;;;;;;3.90;0.40;;;;;;;2.07;85.37;99082.76;106607;1277;24276;-60
2023/01/16 04:01:32;;;;;;;2.70;0.40;;;;;;;2.09;85.45;99081.13;106814;1270;22540;-59
2023/01/16 04:04:08;;;;;;;2.40;0.40;;;;;;;2.09;85.49;99083.18;106879;1277;24183;-60
2023/01/16 04:06:45;;;;;;;2.90;0.50;;;;;;;2.10;85.55;99083.67;106667;1277;24381;-60
2023/01/16 04:09:22;;;;;;;5.50;0.80;;;;;;;2.11;85.61;99081.65;106704;1277;24228;-60
2023/01/16 04:11:55;;;;;;;5.70;0.70;;;;;;;2.12;85.69;99077.84;106734;1269;25407;-59
2023/01/16 04:14:29;;;;;;;9.20;1.00;;;;;;;2.12;85.58;99076.83;106576;1275;24466;-60
2023/01/16 04:17:01;;;;;;;5.00;0.50;;;;;;;2.12;85.56;99083.61;106685;1277;22555;-59
2023/01/16 04:19:34;;;;;;;4.10;0.40;;;;;;;2.11;85.51;99082.08;106651;1273;22688;-60
2023/01/16 04:22:09;;;;;;;3.30;0.50;;;;;;;2.11;85.57;99080.34;106786;1277;25517;-61
2023/01/16 04:24:39;;;;;;;5.70;0.50;;;;;;;2.12;85.60;99077.70;106717;1270;24228;-59
2023/01/16 04:27:10;;;;;;;2.50;0.50;;;;;;;2.13;85.65;99074.56;106639;1276;22533;-61
2023/01/16 04:29:42;;;;;;;7.20;0.70;;;;;;;2.12;85.59;99072.09;106633;1277;22537;-60
2023/01/16 04:32:12;;;;;;;3.80;0.60;;;;;;;2.13;85.57;99072.95;106709;1277;22534;-61
2023/01/16 04:34:43;;;;;;;4.40;0.60;;;;;;;2.12;85.48;99065.02;106851;1277;23011;-59
2023/01/16 04:37:17;;;;;;;7.00;0.50;;;;;;;2.11;85.51;99065.14;106635;1262;25672;-60
2023/01/16 04:39:49;;;;;;;2.60;0.40;;;;;;;2.11;85.45;99057.13;106741;1277;24247;-60
2023/01/16 04:42:20;;;;;;;2.90;0.60;;;;;;;2.11;85.55;99055.95;106665;1273;22549;-60
2023/01/16 04:44:51;;;;;;;5.00;0.70;;;;;;;2.10;85.51;99052.06;106671;1274;22537;-62
2023/01/16 04:47:22;;;;;;;7.40;0.80;;;;;;;2.10;85.69;99051.66;106656;1253;22563;-59
2023/01/16 04:49:52;;;;;;;7.80;0.60;;;;;;;2.10;85.63;99044.88;106617;1271;22702;-60
2023/01/16 04:52:23;;;;;;;3.10;0.70;;;;;;;2.08;85.52;99033.73;106552;1276;22552;-61
2023/01/16 04:54:54;;;;;;;5.50;0.50;;;;;;;2.06;85.64;99030.79;106597;1277;24254;-62
2023/01/16 04:57:25;;;;;;;7.60;0.60;;;;;;;2.06;85.76;99022.54;106599;1269;22573;-60
2023/01/16 04:59:56;;;;;;;3.80;0.40;;;;;;;2.06;85.72;99019.23;106593;1270;22582;-60
2023/01/16 05:02:27;;;;;;;4.20;0.50;;;;;;;2.07;85.79;99017.54;106478;1277;22557;-59
2023/01/16 05:04:58;;;;;;;5.70;0.50;;;;;;;2.09;85.85;99019.85;106584;1273;24597;-59
2023/01/16 05:07:29;;;;;;;4.30;0.50;;;;;;;2.11;85.89;99021.96;106505;1276;22551;-60
2023/01/16 05:10:00;;;;;;;5.00;0.50;;;;;;;2.12;85.80;99021.55;106473;1270;24226;-61
2023/01/16 05:12:31;;;;;;;3.10;0.60;;;;;;;2.13;85.79;99021.03;106598;1262;22562;-59
2023/01/16 05:15:03;;;;;;;5.10;0.60;;;;;;;2.13;85.75;99015.58;106589;1273;22538;-56
2023/01/16 05:17:34;;;;;;;2.80;0.60;;;;;;;2.13;85.77;99009.13;106706;1273;22537;-58
2023/01/16 05:20:05;;;;;;;6.60;0.70;;;;;;;2.12;85.66;99005.55;106631;1277;24764;-57
2023/01/16 05:22:36;;;;;;;6.10;1.10;;;;;;;2.11;85.65;98997.83;106605;1262;23384;-57
2023/01/16 05:25:08;;;;;;;5.00;0.80;;;;;;;2.10;85.77;98987.71;106640;1276;25142;-61
2023/01/16 05:27:39;;;;;;;9.90;0.90;;;;;;;2.10;85.79;98983.30;106715;1277;25307;-57
2023/01/16 05:30:13;;;;;;;3.50;0.90;;;;;;;2.11;85.83;98983.13;106544;1269;24216;-57
2023/01/16 05:32:45;;;;;;;5.90;1.10;;;;;;;2.11;85.76;98979.73;106646;1259;24652;-58
2023/01/16 05:35:16;;;;;;;5.90;0.60;;;;;;;2.11;85.84;98981.59;106676;1262;22938;-59
2023/01/16 05:37:47;;;;;;;5.40;0.90;;;;;;;2.10;85.72;98980.07;106635;1277;25358;-58
2023/01/16 05:40:19;;;;;;;7.10;0.80;;;;;;;2.12;85.81;98974.35;106536;1263;24775;-61
2023/01/16 05:42:50;;;;;;;7.00;1.20;;;;;;;2.13;85.82;98967.14;106605;1271;22546;-62
2023/01/16 05:45:21;;;;;;;6.60;0.90;;;;;;;2.13;85.72;98963.14;106315;1262;26616;-60
2023/01/16 05:47:53;;;;;;;4.00;0.80;;;;;;;2.13;85.85;98961.23;106732;1267;22663;-59
2023/01/16 05:50:24;;;;;;;6.40;0.70;;;;;;;2.14;85.92;98957.02;109617;1270;22529;-58
2023/01/16 05:52:56;;;;;;;5.80;0.60;;;;;;;2.16;85.90;98952.71;106603;1262;22803;-58
2023/01/16 05:55:27;;;;;;;6.80;0.60;;;;;;;2.16;85.91;98942.15;106511;1270;25256;-59
2023/01/16 05:57:58;;;;;;;5.00;0.70;;;;;;;2.16;85.96;98940.27;106594;1273;26759;-57
2023/01/16 06:00:29;;;;;;;10.00;1.10;;;;;;;2.16;85.74;98938.55;106463;1274;24279;-56
2023/01/16 06:03:00;;;;;;;7.50;0.90;;;;;;;2.15;85.74;98933.86;106526;1267;24227;-58
2023/01/16 06:05:31;;;;;;;4.10;1.00;;;;;;;2.14;85.62;98926.83;106477;1276;22554;-59
2023/01/16 06:08:02;;;;;;;6.70;0.80;;;;;;;2.15;85.70;98924.84;106537;1262;22581;-59
2023/01/16 06:10:33;;;;;;;3.20;0.70;;;;;;;2.14;85.67;98921.08;108511;1273;22612;-57
2023/01/16 06:13:04;;;;;;;6.10;1.00;;;;;;;2.14;85.88;98924.16;106659;1277;25505;-59
2023/01/16 06:15:35;;;;;;;6.30;0.90;;;;;;;2.14;85.94;98921.41;106630;1271;24374;-61
2023/01/16 06:18:07;;;;;;;9.00;1.30;;;;;;;2.14;86.10;98921.88;106458;1270;22990;-60
2023/01/16 06:20:37;;;;;;;6.30;0.90;;;;;;;2.14;86.03;98920.13;106467;1262;22650;-61
2023/01/16 06:23:09;;;;;;;6.80;1.20;;;;;;;2.13;85.97;98926.63;106587;1270;22538;-59
2023/01/16 06:25:40;;;;;;;5.70;0.70;;;;;;;2.10;86.04;98925.20;106774;1273;26553;-59
2023/01/16 06:28:12;;;;;;;9.90;1.10;;;;;;;2.08;86.12;98916.67;106701;1261;23942;-58
2023/01/16 06:30:43;;;;;;;4.20;1.00;;;;;;;2.04;85.97;98910.64;106681;1277;25525;-58
2023/01/16 06:33:14;;;;;;;6.70;0.90;;;;;;;1.99;85.95;98903.14;106790;1277;24297;-58
2023/01/16 06:35:48;;;;;;;6.60;0.90;;;;;;;1.98;86.03;98903.89;106501;1274;22540;-58
2023/01/16 06:38:20;;;;;;;6.70;0.80;;;;;;;1.95;86.11;98902.65;107161;1262;22620;-58
2023/01/16 06:40:55;;;;;;;10.30;0.90;;;;;;;1.93;86.20;98899.50;106698;1277;24373;-59
2023/01/16 06:43:27;;;;;;;4.40;0.80;;;;;;;1.94;86.22;98900.48;106625;1276;24259;-61
2023/01/16 06:45:59;;;;;;;11.60;0.90;;;;;;;1.95;86.27;98904.06;106547;1277;25430;-59
2023/01/16 06:48:31;;;;;;;6.20;1.60;;;;;;;1.95;86.35;98906.52;106719;1269;23124;-60
2023/01/16 06:51:02;;;;;;;10.60;0.90;;;;;;;1.95;86.29;98911.95;106598;1277;22538;-59
2023/01/16 06:53:33;;;;;;;7.00;0.90;;;;;;;1.94;86.25;98911.19;106485;1262;25510;-61
2023/01/16 06:56:05;;;;;;;4.60;0.90;;;;;;;1.93;86.26;98903.91;106417;1270;22537;-59
2023/01/16 06:58:36;;;;;;;5.40;0.90;;;;;;;1.93;86.14;98902.11;107151;1265;22533;-61
2023/01/16 07:01:07;;;;;;;5.50;0.80;;;;;;;1.93;86.29;98901.34;106480;1270;22548;-62
2023/01/16 07:03:38;;;;;;;9.70;1.00;;;;;;;1.93;86.19;98904.30;107333;1277;25415;-61
2023/01/16 07:06:09;;;;;;;9.30;1.00;;;;;;;1.94;86.20;98899.96;106519;1277;25275;-60
2023/01/16 07:08:40;;;;;;;7.10;1.00;;;;;;;1.94;86.15;98900.59;106699;1271;25252;-60
2023/01/16 07:11:11;;;;;;;7.20;1.00;;;;;;;1.94;86.19;98902.08;106489;1273;24466;-61
2023/01/16 07:13:42;;;;;;;10.20;1.20;;;;;;;1.93;86.03;98897.30;106545;1277;24391;-60
2023/01/16 07:24:41;;;;;;;8.40;1.40;;;;;;;2.00;86.06;98898.06;106531;1271;22593;-62
2023/01/16 07:27:12;;;;;;;11.20;1.60;;;;;;;2.01;86.08;98894.38;106523;1277;22530;-61
2023/01/16 07:29:43;;;;;;;15.30;2.90;;;;;;;2.02;86.08;98894.03;106534;1277;24279;-61
2023/01/16 07:32:14;;;;;;;10.20;1.70;;;;;;;2.02;86.18;98896.78;106529;1273;22552;-59
2023/01/16 07:34:45;;;;;;;12.40;1.50;;;;;;;2.04;86.10;98897.24;106513;1277;22547;-58
2023/01/16 07:37:16;;;;;;;5.50;1.10;;;;;;;2.05;86.17;98892.16;106511;1270;25310;-60
2023/01/16 07:39:47;;;;;;;5.70;1.10;;;;;;;2.07;86.26;98884.26;106528;1277;24394;-61
2023/01/16 07:42:17;;;;;;;8.50;1.00;;;;;;;2.09;86.17;98879.86;106521;1277;22521;-58
2023/01/16 07:44:49;;;;;;;8.50;1.10;;;;;;;2.09;86.11;98873.92;106564;1261;24384;-61
2023/01/16 07:47:20;;;;;;;7.30;1.00;;;;;;;2.11;86.02;98860.64;106546;1277;25164;-60
2023/01/16 07:49:50;;;;;;;5.60;1.00;;;;;;;2.14;85.96;98858.00;106409;1271;22654;-60
2023/01/16 07:52:21;;;;;;;14.20;3.10;;;;;;;2.17;85.89;98852.38;106579;1271;24247;-61
2023/01/16 07:54:52;;;;;;;9.80;1.70;;;;;;;2.20;85.97;98850.15;106510;1277;22593;-59
2023/01/16 07:57:25;;;;;;;9.30;1.60;;;;;;;2.21;85.85;98850.55;106562;1262;24244;-61
2023/01/16 07:59:56;;;;;;;14.40;2.20;;;;;;;2.24;86.00;98844.77;106597;1262;24340;-62
2023/01/16 08:02:27;;;;;;;11.10;2.30;;;;;;;2.26;86.04;98843.73;106634;1274;24292;-60
2023/01/16 08:04:58;;;;;;;12.70;2.30;;;;;;;2.28;86.04;98837.92;106534;1273;22591;-61
2023/01/16 08:07:29;;;;;;;13.10;2.20;;;;;;;2.28;86.08;98836.24;106512;1276;22527;-61
2023/01/16 08:10:00;;;;;;;10.90;2.10;;;;;;;2.30;86.11;98839.48;106541;1277;24385;-59
2023/01/16 08:12:31;;;;;;;11.00;1.70;;;;;;;2.30;86.11;98830.66;106530;1277;22619;-59
2023/01/16 08:15:02;;;;;;;7.60;1.20;;;;;;;2.31;86.15;98823.80;106544;1277;25441;-59
2023/01/16 08:17:33;;;;;;;11.60;1.60;;;;;;;2.31;86.09;98812.29;106503;1273;22605;-60
2023/01/16 08:20:05;;;;;;;11.80;1.80;;;;;;;2.32;85.95;98806.98;106613;1273;22545;-61
2023/01/16 08:22:36;;;;;;;12.60;2.10;;;;;;;2.31;85.95;98808.61;106645;1262;24292;-60
2023/01/16 08:25:09;;;;;;;9.30;2.00;;;;;;;2.30;85.97;98808.55;106526;1270;22481;-62
2023/01/16 08:27:39;;;;;;;12.90;2.10;;;;;;;2.30;85.87;98811.85;106538;1271;22998;-58
2023/01/16 08:30:15;;;;;;;10.10;1.90;;;;;;;2.30;86.03;98810.54;106527;1273;22527;-59
2023/01/16 08:32:45;;;;;;;10.30;2.10;;;;;;;2.31;86.13;98803.96;106592;1265;24236;-65
2023/01/16 08:35:17;;;;;;;10.60;1.90;;;;;;;2.31;86.13;98798.59;106529;1274;24278;-59
2023/01/16 08:37:53;;;;;;;11.90;1.90;;;;;;;2.32;86.11;98794.09;106594;1277;25373;-61
2023/01/16 08:40:24;;;;;;;12.50;1.80;;;;;;;2.31;86.04;98791.27;106741;1277;24384;-58
2023/01/16 08:51:23;;;;;;;8.90;1.60;;;;;;;2.35;86.22;98795.52;106515;1262;24436;-60
2023/01/16 08:53:58;;;;;;;14.00;2.70;;;;;;;2.37;86.20;98799.14;106469;1254;22663;-58
2023/01/16 08:56:28;;;;;;;14.20;2.30;;;;;;;2.39;86.21;98800.15;106616;1265;24268;-59
2023/01/16 08:58:59;;;;;;;18.30;3.40;;;;;;;2.42;86.32;98803.02;106541;1277;22530;-61
2023/01/16 09:01:30;;;;;;;22.00;5.70;;;;;;;2.42;86.21;98800.00;106578;1270;25238;-61
2023/01/16 09:04:01;;;;;;;15.90;4.10;;;;;;;2.45;86.35;98802.73;106620;1277;24320;-59
2023/01/16 09:06:35;;;;;;;14.30;2.50;;;;;;;2.46;86.39;98794.79;106561;1262;24226;-62
2023/01/16 09:09:07;;;;;;;10.70;1.90;;;;;;;2.50;86.20;98794.42;106504;1274;24389;-59
2023/01/16 09:14:26;;;;;;;7.60;1.40;;;;;;;2.56;86.14;98769.75;106539;1274;25672;-60
2023/01/16 09:16:57;;;;;;;11.80;2.10;;;;;;;2.59;85.99;98765.93;106615;1277;24214;-60
2023/01/16 09:19:28;;;;;;;12.10;1.80;;;;;;;2.63;86.05;98761.58;106495;1276;22545;-60
2023/01/16 09:21:59;;;;;;;8.60;1.50;;;;;;;2.66;86.12;98746.99;106543;1277;22568;-60
2023/01/16 09:24:30;;;;;;;9.70;1.30;;;;;;;2.70;86.07;98743.44;106593;1268;24391;-59
2023/01/16 09:27:01;;;;;;;9.40;1.40;;;;;;;2.75;86.14;98741.45;106526;1267;23903;-61
2023/01/16 09:29:32;;;;;;;12.30;2.00;;;;;;;2.78;86.09;98735.16;106513;1270;24385;-62
2023/01/16 09:32:08;;;;;;;11.50;2.20;;;;;;;2.79;86.17;98723.73;106551;1277;22771;-59
2023/01/16 09:34:41;;;;;;;15.10;2.90;;;;;;;2.82;86.17;98717.41;106547;1277;22551;-61
2023/01/16 09:37:12;;;;;;;13.50;3.30;;;;;;;2.83;86.19;98710.80;106589;1277;24276;-58
2023/01/16 09:39:43;;;;;;;11.00;2.50;;;;;;;2.87;86.27;98702.53;106553;1277;22593;-59
2023/01/16 09:45:32;;;;;;;13.20;2.80;;;;;;;3.00;85.96;98692.17;106493;1275;22660;-59
2023/01/16 09:48:06;;;;;;;13.90;2.50;;;;;;;3.06;85.93;98696.11;106493;1277;23943;-59
2023/01/16 09:50:43;;;;;;;14.70;3.00;;;;;;;3.11;85.83;98690.33;106657;1277;24231;-60
2023/01/16 09:59:17;;;;;;;15.60;2.10;;;;;;;3.29;85.68;98685.92;106442;1277;22539;-59
2023/01/16 10:01:54;;;;;;;12.90;2.50;;;;;;;3.33;85.95;98689.47;106459;1277;22548;-62
2023/01/16 10:04:28;;;;;;;18.80;5.10;;;;;;;3.36;86.12;98684.92;106603;1270;24271;-61
2023/01/16 10:07:24;;;;;;;15.60;2.30;;;;;;;3.39;86.09;98680.67;106483;1277;24272;-59
2023/01/16 10:10:03;;;;;;;10.50;2.00;;;;;;;3.41;86.08;98675.11;106390;1277;24822;-60
2023/01/16 10:12:39;;;;;;;15.50;3.90;;;;;;;3.43;85.97;98665.88;106524;1277;24917;-59
2023/01/16 10:15:25;;;;;;;16.50;3.50;;;;;;;3.46;86.05;98654.40;106464;1262;22534;-60
2023/01/16 10:18:09;;;;;;;14.80;2.50;;;;;;;3.50;86.30;98644.59;106446;1267;24236;-59
2023/01/16 10:20:56;;;;;;;11.60;2.70;;;;;;;3.53;86.10;98644.33;106521;1277;22661;-60
2023/01/16 10:23:47;;;;;;;15.80;3.80;;;;;;;3.57;86.01;98638.59;106500;1258;22582;-61
2023/01/16 10:26:28;;;;;;;19.40;4.20;;;;;;;3.65;85.74;98629.68;106596;1272;24394;-59
2023/01/16 10:29:07;;;;;;;19.50;3.50;;;;;;;3.73;86.03;98624.41;106414;1262;22524;-59
2023/01/16 10:31:43;;;;;;;21.20;4.40;;;;;;;3.77;85.87;98617.23;106501;1277;25495;-59
2023/01/16 10:34:21;;;;;;;14.90;2.80;;;;;;;3.85;85.66;98613.21;106633;1276;24386;-59
2023/01/16 10:36:58;;;;;;;18.90;4.50;;;;;;;3.92;85.92;98609.54;106607;1277;22540;-59
2023/01/16 10:39:35;;;;;;;23.50;5.80;;;;;;;3.98;85.92;98609.23;106734;1270;22536;-59
2023/01/16 10:50:50;;;;;;;17.20;2.00;;;;;;;4.28;84.24;98574.36;106040;1274;22539;-59
2023/01/16 10:53:21;;;;;;;14.50;2.40;;;;;;;4.35;84.10;98570.98;105994;1277;24489;-59
2023/01/16 10:55:54;;;;;;;8.70;1.50;;;;;;;4.38;83.99;98563.52;105947;1267;22540;-59
2023/01/16 10:58:29;;;;;;;9.00;1.40;;;;;;;4.39;83.78;98557.78;106045;1268;22536;-60
2023/01/16 11:01:03;;;;;;;9.40;1.80;;;;;;;4.43;83.57;98545.98;106027;1277;22540;-61
2023/01/16 11:03:40;;;;;;;6.50;1.10;;;;;;;4.47;83.25;98536.85;106066;1282;22533;-59
2023/01/16 11:06:14;;;;;;;7.70;1.10;;;;;;;4.52;83.17;98531.51;106157;1274;26556;-60
2023/01/16 11:08:48;;;;;;;7.40;1.40;;;;;;;4.56;82.73;98519.83;105969;1278;24275;-60
2023/01/16 11:20:18;;;;;;;4.40;1.00;;;;;;;4.71;82.34;98491.30;106030;1282;22579;-59
2023/01/16 11:22:56;;;;;;;5.60;0.70;;;;;;;4.74;82.08;98490.58;106174;1279;27251;-59
2023/01/16 11:25:28;;;;;;;5.50;0.60;;;;;;;4.77;81.76;98483.55;106137;1277;22554;-60
2023/01/16 11:28:03;;;;;;;6.30;0.90;;;;;;;4.80;81.75;98476.66;106590;1277;22533;-56
2023/01/16 11:30:39;;;;;;;6.40;1.00;;;;;;;4.84;81.87;98470.52;106571;1270;25586;-59
2023/01/16 11:33:15;;;;;;;4.40;0.90;;;;;;;4.86;81.80;98462.09;106665;1275;22558;-60
2023/01/16 11:35:54;;;;;;;4.20;0.70;;;;;;;4.88;81.83;98453.07;106711;1277;25108;-59
2023/01/16 11:38:28;;;;;;;5.60;0.80;;;;;;;4.91;81.45;98449.64;106607;1258;22527;-60
2023/01/16 11:41:03;;;;;;;5.50;0.60;;;;;;;4.94;81.24;98443.45;106642;1275;22683;-59
2023/01/16 11:46:41;;;;;;;2.10;0.50;;;;;;;5.04;80.85;98429.29;106484;1260;22535;-60
2023/01/16 11:49:19;;;;;;;3.90;0.60;;;;;;;5.09;80.50;98418.02;106457;1262;23502;-59
2023/01/16 11:51:56;;;;;;;4.30;0.60;;;;;;;5.10;80.17;98420.77;106464;1277;22527;-58
2023/01/16 11:54:31;;;;;;;3.40;0.60;;;;;;;5.10;79.89;98408.02;106542;1274;22533;-61
2023/01/16 11:57:24;;;;;;;4.20;0.50;;;;;;;5.13;79.67;98405.44;106627;1277;24229;-60
2023/01/16 12:00:10;;;;;;;7.90;0.60;;;;;;;5.14;79.26;98401.24;105952;1280;24399;-59
2023/01/16 12:03:05;;;;;;;7.40;0.90;;;;;;;5.17;79.27;98392.57;105871;1284;22533;-58
2023/01/16 12:05:56;;;;;;;4.00;0.70;;;;;;;5.21;79.49;98384.36;105528;1289;22546;-58
2023/01/16 12:08:53;;;;;;;2.80;0.50;;;;;;;5.24;79.71;98373.12;105656;1289;22550;-61
2023/01/16 12:11:37;;;;;;;5.70;0.90;;;;;;;5.26;79.62;98372.24;105584;1289;24263;-60
2023/01/16 12:14:20;;;;;;;6.60;0.80;;;;;;;5.27;79.36;98373.00;105582;1277;24413;-59
2023/01/16 12:17:07;;;;;;;6.30;1.00;;;;;;;5.29;78.80;98367.55;105496;1283;24757;-59
2023/01/16 12:20:08;;;;;;;6.80;0.70;;;;;;;5.30;79.67;98363.77;105550;1289;25722;-59
2023/01/16 12:22:58;;;;;;;4.90;0.80;;;;;;;5.27;79.48;98366.17;105579;1289;25332;-59
2023/01/16 12:25:37;;;;;;;3.50;0.70;;;;;;;5.25;79.84;98353.23;105479;1274;22974;-60
2023/01/16 12:28:18;;;;;;;5.20;0.70;;;;;;;5.23;79.04;98344.59;105550;1288;22566;-58
2023/01/16 12:31:06;;;;;;;;;;;;;;;5.21;78.71;98335.73;105544;1283;22640;-60
2023/01/16 12:33:43;;;;;;;10.10;1.30;;;;;;;5.19;79.07;98326.76;105553;1289;23153;-59
2023/01/16 12:36:21;;;;;;;7.20;1.30;;;;;;;5.19;79.38;98315.94;105604;1283;22554;-61
2023/01/16 12:39:03;;;;;;;4.60;0.80;;;;;;;5.18;79.01;98312.86;105825;1277;24332;-59
2023/01/16 12:44:49;;;;;;;6.00;1.30;;;;;;;5.17;79.34;98311.75;106282;1277;25252;-59
2023/01/16 12:47:34;;;;;;;6.80;0.90;;;;;;;5.18;79.40;98308.73;106572;1271;22545;-59
2023/01/16 12:50:16;;;;;;;5.80;1.00;;;;;;;5.18;79.49;98313.31;106420;1270;24439;-60
2023/01/16 12:53:05;;;;;;;10.80;1.40;;;;;;;5.17;79.10;98308.59;106655;1276;22537;-58
2023/01/16 12:55:44;;;;;;;6.70;0.90;;;;;;;5.18;78.90;98300.42;106585;1275;24267;-59
2023/01/16 12:58:19;;;;;;;6.80;1.30;;;;;;;5.19;78.85;98301.14;106511;1277;22601;-59
2023/01/16 13:00:56;;;;;;;4.60;1.20;;;;;;;5.20;78.90;98295.04;106427;1272;22538;-59
2023/01/16 13:03:35;;;;;;;5.20;1.00;;;;;;;5.22;78.97;98288.30;106529;1277;22663;-60
2023/01/16 13:06:12;;;;;;;10.40;1.00;;;;;;;5.22;78.86;98283.58;106560;1277;24222;-58
2023/01/16 13:08:51;;;;;;;7.40;0.80;;;;;;;5.22;78.96;98283.47;106461;1268;25309;-58